sensor_id;sensor_type;location;lat;lon;timestamp;pressure;altitude;pressure_sealevel;temperature
24714;BMP280;12820;51.580;5.010;2022-07-21T00:03:22;101665.28;;;22.88
24714;BMP280;12820;51.580;5.010;2022-07-21T00:08:24;101668.84;;;22.86
24714;BMP280;12820;51.580;5.010;2022-07-21T00:13:26;101667.25;;;22.83
24714;BMP280;12820;51.580;5.010;2022-07-21T00:18:29;101665.75;;;22.79
24714;BMP280;12820;51.580;5.010;2022-07-21T00:23:31;101666.94;;;22.73
24714;BMP280;12820;51.580;5.010;2022-07-21T00:28:33;101673.16;;;22.69
24714;BMP280;12820;51.580;5.010;2022-07-21T00:33:35;101668.25;;;22.64
24714;BMP280;12820;51.580;5.010;2022-07-21T00:38:37;101679.72;;;22.58
24714;BMP280;12820;51.580;5.010;2022-07-21T00:43:46;101670.56;;;22.52
24714;BMP280;12820;51.580;5.010;2022-07-21T00:48:49;101676.81;;;22.47
24714;BMP280;12820;51.580;5.010;2022-07-21T00:53:51;101669.34;;;22.43
24714;BMP280;12820;51.580;5.010;2022-07-21T00:58:54;101674.59;;;22.40
24714;BMP280;12820;51.580;5.010;2022-07-21T01:03:57;101673.09;;;22.36
24714;BMP280;12820;51.580;5.010;2022-07-21T01:09:00;101667.31;;;22.32
24714;BMP280;12820;51.580;5.010;2022-07-21T01:14:08;101670.09;;;22.28
24714;BMP280;12820;51.580;5.010;2022-07-21T01:19:11;101667.81;;;22.22
24714;BMP280;12820;51.580;5.010;2022-07-21T01:24:14;101656.97;;;22.17
24714;BMP280;12820;51.580;5.010;2022-07-21T01:29:17;101646.13;;;22.12
24714;BMP280;12820;51.580;5.010;2022-07-21T01:34:19;101667.66;;;22.08
24714;BMP280;12820;51.580;5.010;2022-07-21T01:39:21;101667.78;;;22.06
24714;BMP280;12820;51.580;5.010;2022-07-21T01:44:53;101665.31;;;22.04
24714;BMP280;12820;51.580;5.010;2022-07-21T01:49:55;101663.81;;;22.00
24714;BMP280;12820;51.580;5.010;2022-07-21T01:54:58;101656.19;;;21.99
24714;BMP280;12820;51.580;5.010;2022-07-21T02:00:00;101661.47;;;21.96
24714;BMP280;12820;51.580;5.010;2022-07-21T02:05:07;101653.91;;;21.93
24714;BMP280;12820;51.580;5.010;2022-07-21T02:10:09;101646.38;;;21.90
24714;BMP280;12820;51.580;5.010;2022-07-21T02:15:12;101653.28;;;21.88
24714;BMP280;12820;51.580;5.010;2022-07-21T02:20:14;101653.44;;;21.85
24714;BMP280;12820;51.580;5.010;2022-07-21T02:25:17;101649.22;;;21.84
24714;BMP280;12820;51.580;5.010;2022-07-21T02:30:19;101646.72;;;21.83
24714;BMP280;12820;51.580;5.010;2022-07-21T02:35:21;101647.69;;;21.80
24714;BMP280;12820;51.580;5.010;2022-07-21T02:40:24;101641.03;;;21.76
24714;BMP280;12820;51.580;5.010;2022-07-21T02:45:26;101650.50;;;21.74
24714;BMP280;12820;51.580;5.010;2022-07-21T02:50:31;101643.06;;;21.70
24714;BMP280;12820;51.580;5.010;2022-07-21T02:55:35;101638.88;;;21.68
24714;BMP280;12820;51.580;5.010;2022-07-21T03:00:40;101634.06;;;21.62
24714;BMP280;12820;51.580;5.010;2022-07-21T03:05:42;101626.53;;;21.59
24714;BMP280;12820;51.580;5.010;2022-07-21T03:10:45;101638.63;;;21.55
24714;BMP280;12820;51.580;5.010;2022-07-21T03:15:47;101639.63;;;21.53
24714;BMP280;12820;51.580;5.010;2022-07-21T03:20:49;101643.06;;;21.52
24714;BMP280;12820;51.580;5.010;2022-07-21T03:25:52;101640.56;;;21.51
24714;BMP280;12820;51.580;5.010;2022-07-21T03:30:54;101630.50;;;21.48
24714;BMP280;12820;51.580;5.010;2022-07-21T03:35:56;101639.94;;;21.46
24714;BMP280;12820;51.580;5.010;2022-07-21T03:41:00;101641.69;;;21.45
24714;BMP280;12820;51.580;5.010;2022-07-21T03:46:02;101637.44;;;21.44
24714;BMP280;12820;51.580;5.010;2022-07-21T03:51:05;101640.94;;;21.43
24714;BMP280;12820;51.580;5.010;2022-07-21T03:56:07;101640.00;;;21.44
24714;BMP280;12820;51.580;5.010;2022-07-21T04:01:09;101651.22;;;21.42
24714;BMP280;12820;51.580;5.010;2022-07-21T04:06:11;101641.81;;;21.42
24714;BMP280;12820;51.580;5.010;2022-07-21T04:11:14;101644.38;;;21.42
24714;BMP280;12820;51.580;5.010;2022-07-21T04:16:16;101648.72;;;21.40
24714;BMP280;12820;51.580;5.010;2022-07-21T04:21:18;101642.94;;;21.37
24714;BMP280;12820;51.580;5.010;2022-07-21T04:26:20;101650.59;;;21.37
24714;BMP280;12820;51.580;5.010;2022-07-21T04:31:23;101657.44;;;21.36
24714;BMP280;12820;51.580;5.010;2022-07-21T04:36:25;101662.56;;;21.36
24714;BMP280;12820;51.580;5.010;2022-07-21T04:41:27;101655.78;;;21.36
24714;BMP280;12820;51.580;5.010;2022-07-21T04:46:29;101652.31;;;21.36
24714;BMP280;12820;51.580;5.010;2022-07-21T04:51:31;101652.16;;;21.39
24714;BMP280;12820;51.580;5.010;2022-07-21T04:56:33;101651.06;;;21.45
24714;BMP280;12820;51.580;5.010;2022-07-21T05:01:37;101650.94;;;21.48
24714;BMP280;12820;51.580;5.010;2022-07-21T05:06:40;101660.75;;;21.56
24714;BMP280;12820;51.580;5.010;2022-07-21T05:11:42;101657.94;;;21.62
24714;BMP280;12820;51.580;5.010;2022-07-21T05:16:44;101653.13;;;21.73
24714;BMP280;12820;51.580;5.010;2022-07-21T05:21:46;101647.69;;;21.80
24714;BMP280;12820;51.580;5.010;2022-07-21T05:26:49;101646.50;;;21.87
24714;BMP280;12820;51.580;5.010;2022-07-21T05:31:51;101646.09;;;21.96
24714;BMP280;12820;51.580;5.010;2022-07-21T05:36:53;101638.72;;;22.07
24714;BMP280;12820;51.580;5.010;2022-07-21T05:41:55;101641.44;;;22.20
24714;BMP280;12820;51.580;5.010;2022-07-21T05:46:57;101649.31;;;22.34
24714;BMP280;12820;51.580;5.010;2022-07-21T05:52:00;101652.16;;;22.44
24714;BMP280;12820;51.580;5.010;2022-07-21T05:57:02;101645.97;;;22.48
24714;BMP280;12820;51.580;5.010;2022-07-21T06:02:04;101638.22;;;22.50
24714;BMP280;12820;51.580;5.010;2022-07-21T06:07:07;101646.75;;;22.50
24714;BMP280;12820;51.580;5.010;2022-07-21T06:12:09;101645.97;;;22.48
24714;BMP280;12820;51.580;5.010;2022-07-21T06:17:11;101648.88;;;22.43
24714;BMP280;12820;51.580;5.010;2022-07-21T06:22:13;101642.13;;;22.40
24714;BMP280;12820;51.580;5.010;2022-07-21T06:27:16;101652.47;;;22.39
24714;BMP280;12820;51.580;5.010;2022-07-21T06:32:18;101654.56;;;22.31
24714;BMP280;12820;51.580;5.010;2022-07-21T06:37:20;101665.03;;;22.26
24714;BMP280;12820;51.580;5.010;2022-07-21T06:42:23;101667.81;;;22.22
24714;BMP280;12820;51.580;5.010;2022-07-21T06:47:25;101667.22;;;22.17
24714;BMP280;12820;51.580;5.010;2022-07-21T06:52:28;101675.19;;;22.11
24714;BMP280;12820;51.580;5.010;2022-07-21T06:57:35;101676.28;;;22.06
24714;BMP280;12820;51.580;5.010;2022-07-21T07:02:37;101678.78;;;22.08
24714;BMP280;12820;51.580;5.010;2022-07-21T07:07:39;101684.06;;;22.05
24714;BMP280;12820;51.580;5.010;2022-07-21T07:12:42;101684.19;;;22.02
24714;BMP280;12820;51.580;5.010;2022-07-21T07:18:04;101686.00;;;22.00
24714;BMP280;12820;51.580;5.010;2022-07-21T07:23:06;101692.03;;;21.99
24714;BMP280;12820;51.580;5.010;2022-07-21T07:28:08;101684.41;;;21.97
24714;BMP280;12820;51.580;5.010;2022-07-21T07:33:10;101688.78;;;21.95
24714;BMP280;12820;51.580;5.010;2022-07-21T07:38:14;101687.34;;;21.90
24714;BMP280;12820;51.580;5.010;2022-07-21T07:43:16;101682.50;;;21.84
24714;BMP280;12820;51.580;5.010;2022-07-21T07:48:22;101686.06;;;21.80
24714;BMP280;12820;51.580;5.010;2022-07-21T07:53:24;101693.13;;;21.75
24714;BMP280;12820;51.580;5.010;2022-07-21T07:58:26;101682.34;;;21.69
24714;BMP280;12820;51.580;5.010;2022-07-21T08:03:28;101698.53;;;21.70
24714;BMP280;12820;51.580;5.010;2022-07-21T08:08:31;101690.06;;;21.68
24714;BMP280;12820;51.580;5.010;2022-07-21T08:13:34;101690.06;;;21.68
24714;BMP280;12820;51.580;5.010;2022-07-21T08:18:36;101691.88;;;21.66
24714;BMP280;12820;51.580;5.010;2022-07-21T08:23:38;101706.41;;;21.65
24714;BMP280;12820;51.580;5.010;2022-07-21T08:28:41;101713.19;;;21.66
24714;BMP280;12820;51.580;5.010;2022-07-21T08:33:43;101713.31;;;21.63
24714;BMP280;12820;51.580;5.010;2022-07-21T08:38:45;101725.22;;;21.64
24714;BMP280;12820;51.580;5.010;2022-07-21T08:43:49;101728.75;;;21.62
24714;BMP280;12820;51.580;5.010;2022-07-21T08:48:52;101731.38;;;21.60
24714;BMP280;12820;51.580;5.010;2022-07-21T08:53:55;101730.59;;;21.58
24714;BMP280;12820;51.580;5.010;2022-07-21T08:58:58;101730.88;;;21.53
24714;BMP280;12820;51.580;5.010;2022-07-21T09:04:33;101736.44;;;21.62
24714;BMP280;12820;51.580;5.010;2022-07-21T09:09:40;101737.81;;;21.69
24714;BMP280;12820;51.580;5.010;2022-07-21T09:14:42;101730.63;;;21.76
24714;BMP280;12820;51.580;5.010;2022-07-21T09:19:45;101738.66;;;21.87
24714;BMP280;12820;51.580;5.010;2022-07-21T09:24:50;101742.81;;;21.90
24714;BMP280;12820;51.580;5.010;2022-07-21T09:29:59;101739.50;;;21.88
24714;BMP280;12820;51.580;5.010;2022-07-21T09:35:04;101748.16;;;21.85
24714;BMP280;12820;51.580;5.010;2022-07-21T09:40:14;101751.84;;;21.78
24714;BMP280;12820;51.580;5.010;2022-07-21T09:45:18;101754.97;;;21.67
24714;BMP280;12820;51.580;5.010;2022-07-21T09:50:20;101760.09;;;21.67
24714;BMP280;12820;51.580;5.010;2022-07-21T09:55:27;101756.06;;;21.79
24714;BMP280;12820;51.580;5.010;2022-07-21T10:00:31;101759.91;;;21.89
24714;BMP280;12820;51.580;5.010;2022-07-21T10:05:35;101761.94;;;22.01
24714;BMP280;12820;51.580;5.010;2022-07-21T10:10:37;101768.00;;;22.16
24714;BMP280;12820;51.580;5.010;2022-07-21T10:16:00;101771.22;;;22.38
24714;BMP280;12820;51.580;5.010;2022-07-21T10:21:16;101775.25;;;22.43
24714;BMP280;12820;51.580;5.010;2022-07-21T10:26:23;101786.88;;;22.32
24714;BMP280;12820;51.580;5.010;2022-07-21T10:31:26;101795.13;;;22.20
24714;BMP280;12820;51.580;5.010;2022-07-21T10:46:39;101815.00;;;21.97
24714;BMP280;12820;51.580;5.010;2022-07-21T10:51:42;101821.16;;;21.93
24714;BMP280;12820;51.580;5.010;2022-07-21T10:56:44;101810.22;;;21.90
24714;BMP280;12820;51.580;5.010;2022-07-21T11:01:46;101819.91;;;21.84
24714;BMP280;12820;51.580;5.010;2022-07-21T11:06:50;101820.91;;;21.80
24714;BMP280;12820;51.580;5.010;2022-07-21T11:12:02;101823.78;;;21.72
24714;BMP280;12820;51.580;5.010;2022-07-21T11:17:06;101831.84;;;21.64
24714;BMP280;12820;51.580;5.010;2022-07-21T11:27:17;101832.66;;;21.46
24714;BMP280;12820;51.580;5.010;2022-07-21T11:32:25;101837.13;;;21.41
24714;BMP280;12820;51.580;5.010;2022-07-21T11:37:41;101848.38;;;21.37
24714;BMP280;12820;51.580;5.010;2022-07-21T11:42:45;101851.97;;;21.34
24714;BMP280;12820;51.580;5.010;2022-07-21T11:47:50;101852.72;;;21.36
24714;BMP280;12820;51.580;5.010;2022-07-21T11:52:54;101851.66;;;21.41
24714;BMP280;12820;51.580;5.010;2022-07-21T11:57:56;101851.53;;;21.44
24714;BMP280;12820;51.580;5.010;2022-07-21T12:03:05;101853.91;;;21.48
24714;BMP280;12820;51.580;5.010;2022-07-21T12:08:09;101853.69;;;21.53
24714;BMP280;12820;51.580;5.010;2022-07-21T12:13:14;101858.09;;;21.49
24714;BMP280;12820;51.580;5.010;2022-07-21T12:18:21;101852.97;;;21.49
24714;BMP280;12820;51.580;5.010;2022-07-21T12:23:28;101865.78;;;21.49
24714;BMP280;12820;51.580;5.010;2022-07-21T12:28:45;101874.16;;;21.53
24714;BMP280;12820;51.580;5.010;2022-07-21T12:33:53;101875.13;;;21.50
24714;BMP280;12820;51.580;5.010;2022-07-21T12:39:21;101875.00;;;21.53
24714;BMP280;12820;51.580;5.010;2022-07-21T12:44:41;101882.41;;;21.59
24714;BMP280;12820;51.580;5.010;2022-07-21T12:50:03;101879.44;;;21.68
24714;BMP280;12820;51.580;5.010;2022-07-21T12:55:21;101877.28;;;21.78
24714;BMP280;12820;51.580;5.010;2022-07-21T13:00:23;101878.16;;;21.97
24714;BMP280;12820;51.580;5.010;2022-07-21T13:05:26;101876.41;;;22.17
24714;BMP280;12820;51.580;5.010;2022-07-21T13:10:28;101882.56;;;22.31
24714;BMP280;12820;51.580;5.010;2022-07-21T13:15:31;101883.34;;;22.33
24714;BMP280;12820;51.580;5.010;2022-07-21T13:20:33;101879.09;;;22.32
24714;BMP280;12820;51.580;5.010;2022-07-21T13:25:36;101889.34;;;22.32
24714;BMP280;12820;51.580;5.010;2022-07-21T13:30:38;101887.13;;;22.25
24714;BMP280;12820;51.580;5.010;2022-07-21T13:35:44;101891.56;;;22.21
24714;BMP280;12820;51.580;5.010;2022-07-21T13:40:46;101896.34;;;22.28
24714;BMP280;12820;51.580;5.010;2022-07-21T13:46:08;101900.66;;;22.28
24714;BMP280;12820;51.580;5.010;2022-07-21T13:51:12;101897.09;;;22.30
24714;BMP280;12820;51.580;5.010;2022-07-21T13:56:15;101897.25;;;22.27
24714;BMP280;12820;51.580;5.010;2022-07-21T14:01:18;101915.59;;;22.19
24714;BMP280;12820;51.580;5.010;2022-07-21T14:06:20;101912.31;;;22.15
24714;BMP280;12820;51.580;5.010;2022-07-21T14:11:22;101922.91;;;22.08
24714;BMP280;12820;51.580;5.010;2022-07-21T14:16:25;101916.38;;;22.01
24714;BMP280;12820;51.580;5.010;2022-07-21T14:21:28;101918.19;;;21.99
24714;BMP280;12820;51.580;5.010;2022-07-21T14:26:30;101931.03;;;22.17
24714;BMP280;12820;51.580;5.010;2022-07-21T14:31:32;101918.09;;;22.38
24714;BMP280;12820;51.580;5.010;2022-07-21T14:36:36;101934.59;;;22.51
24714;BMP280;12820;51.580;5.010;2022-07-21T14:41:39;101935.41;;;22.51
24714;BMP280;12820;51.580;5.010;2022-07-21T14:46:41;101950.38;;;22.42
24714;BMP280;12820;51.580;5.010;2022-07-21T14:51:45;101942.13;;;22.36
24714;BMP280;12820;51.580;5.010;2022-07-21T14:56:48;101944.94;;;22.30
24714;BMP280;12820;51.580;5.010;2022-07-21T15:02:10;101955.47;;;22.24
24714;BMP280;12820;51.580;5.010;2022-07-21T15:07:19;101959.19;;;22.17
24714;BMP280;12820;51.580;5.010;2022-07-21T15:12:22;101963.75;;;22.11
24714;BMP280;12820;51.580;5.010;2022-07-21T15:17:24;101974.31;;;22.04
24714;BMP280;12820;51.580;5.010;2022-07-21T15:22:28;101974.53;;;21.99
24714;BMP280;12820;51.580;5.010;2022-07-21T15:27:32;101974.78;;;21.93
24714;BMP280;12820;51.580;5.010;2022-07-21T15:32:34;101974.78;;;21.93
24714;BMP280;12820;51.580;5.010;2022-07-21T15:37:37;101987.63;;;21.92
24714;BMP280;12820;51.580;5.010;2022-07-21T15:42:40;101979.25;;;21.89
24714;BMP280;12820;51.580;5.010;2022-07-21T15:47:45;101982.84;;;21.85
24714;BMP280;12820;51.580;5.010;2022-07-21T15:52:47;101990.56;;;21.83
24714;BMP280;12820;51.580;5.010;2022-07-21T15:57:49;101994.19;;;21.78
24714;BMP280;12820;51.580;5.010;2022-07-21T16:02:52;101987.53;;;21.74
24714;BMP280;12820;51.580;5.010;2022-07-21T16:07:55;101992.88;;;21.68
24714;BMP280;12820;51.580;5.010;2022-07-21T16:13:04;101988.09;;;21.61
24714;BMP280;12820;51.580;5.010;2022-07-21T16:18:06;101992.72;;;21.53
24714;BMP280;12820;51.580;5.010;2022-07-21T16:23:08;101996.53;;;21.43
24714;BMP280;12820;51.580;5.010;2022-07-21T16:28:10;102008.72;;;21.37
24714;BMP280;12820;51.580;5.010;2022-07-21T16:33:12;102011.50;;;21.31
24714;BMP280;12820;51.580;5.010;2022-07-21T16:38:14;102016.94;;;21.24
24714;BMP280;12820;51.580;5.010;2022-07-21T16:43:16;102014.72;;;21.15
24714;BMP280;12820;51.580;5.010;2022-07-21T16:48:18;102018.38;;;21.08
24714;BMP280;12820;51.580;5.010;2022-07-21T16:53:21;102022.88;;;21.02
24714;BMP280;12820;51.580;5.010;2022-07-21T16:58:23;102026.44;;;20.98
24714;BMP280;12820;51.580;5.010;2022-07-21T17:03:25;102026.66;;;20.92
24714;BMP280;12820;51.580;5.010;2022-07-21T17:08:27;102029.38;;;20.88
24714;BMP280;12820;51.580;5.010;2022-07-21T17:13:29;102032.84;;;20.87
24714;BMP280;12820;51.580;5.010;2022-07-21T17:18:33;102032.91;;;20.85
24714;BMP280;12820;51.580;5.010;2022-07-21T17:23:36;102034.66;;;20.83
24714;BMP280;12820;51.580;5.010;2022-07-21T17:28:39;102041.44;;;20.84
24714;BMP280;12820;51.580;5.010;2022-07-21T17:33:41;102040.63;;;20.84
24714;BMP280;12820;51.580;5.010;2022-07-21T17:38:43;102043.22;;;20.82
24714;BMP280;12820;51.580;5.010;2022-07-21T17:43:45;102057.75;;;20.82
24714;BMP280;12820;51.580;5.010;2022-07-21T17:48:47;102062.06;;;20.80
24714;BMP280;12820;51.580;5.010;2022-07-21T17:53:49;102060.53;;;20.76
24714;BMP280;12820;51.580;5.010;2022-07-21T17:58:52;102065.00;;;20.70
24714;BMP280;12820;51.580;5.010;2022-07-21T18:03:54;102059.19;;;20.66
24714;BMP280;12820;51.580;5.010;2022-07-21T18:08:57;102060.09;;;20.64
24714;BMP280;12820;51.580;5.010;2022-07-21T18:14:00;102072.16;;;20.61
24714;BMP280;12820;51.580;5.010;2022-07-21T18:19:05;102079.09;;;20.57
24714;BMP280;12820;51.580;5.010;2022-07-21T18:24:07;102061.38;;;20.53
24714;BMP280;12820;51.580;5.010;2022-07-21T18:29:14;102081.81;;;20.53
24714;BMP280;12820;51.580;5.010;2022-07-21T18:34:19;102097.25;;;20.50
24714;BMP280;12820;51.580;5.010;2022-07-21T18:39:21;102094.84;;;20.46
24714;BMP280;12820;51.580;5.010;2022-07-21T18:44:24;102091.56;;;20.42
24714;BMP280;12820;51.580;5.010;2022-07-21T18:49:26;102095.88;;;20.40
24714;BMP280;12820;51.580;5.010;2022-07-21T18:54:28;102098.44;;;20.40
24714;BMP280;12820;51.580;5.010;2022-07-21T18:59:30;102101.91;;;20.39
24714;BMP280;12820;51.580;5.010;2022-07-21T19:04:35;102096.03;;;20.36
24714;BMP280;12820;51.580;5.010;2022-07-21T19:09:40;102111.44;;;20.34
24714;BMP280;12820;51.580;5.010;2022-07-21T19:14:42;102108.94;;;20.31
24714;BMP280;12820;51.580;5.010;2022-07-21T19:19:44;102111.59;;;20.28
24714;BMP280;12820;51.580;5.010;2022-07-21T19:24:46;102120.25;;;20.25
24714;BMP280;12820;51.580;5.010;2022-07-21T19:29:48;102116.91;;;20.23
24714;BMP280;12820;51.580;5.010;2022-07-21T19:34:51;102133.97;;;20.21
24714;BMP280;12820;51.580;5.010;2022-07-21T19:39:53;102137.53;;;20.17
24714;BMP280;12820;51.580;5.010;2022-07-21T19:44:56;102144.41;;;20.15
24714;BMP280;12820;51.580;5.010;2022-07-21T19:50:00;102151.28;;;20.13
24714;BMP280;12820;51.580;5.010;2022-07-21T19:55:03;102148.75;;;20.11
24714;BMP280;12820;51.580;5.010;2022-07-21T20:00:09;102158.09;;;20.12
24714;BMP280;12820;51.580;5.010;2022-07-21T20:05:12;102171.81;;;20.10
24714;BMP280;12820;51.580;5.010;2022-07-21T20:10:14;102165.16;;;20.06
24714;BMP280;12820;51.580;5.010;2022-07-21T20:15:16;102167.00;;;20.01
24714;BMP280;12820;51.580;5.010;2022-07-21T20:20:18;102172.19;;;19.98
24714;BMP280;12820;51.580;5.010;2022-07-21T20:25:20;102166.34;;;19.95
24714;BMP280;12820;51.580;5.010;2022-07-21T20:30:23;102167.25;;;19.92
24714;BMP280;12820;51.580;5.010;2022-07-21T20:35:26;102168.22;;;19.90
24714;BMP280;12820;51.580;5.010;2022-07-21T20:40:28;102175.06;;;19.88
24714;BMP280;12820;51.580;5.010;2022-07-21T20:45:50;102178.56;;;19.86
24714;BMP280;12820;51.580;5.010;2022-07-21T20:50:52;102179.53;;;19.82
24714;BMP280;12820;51.580;5.010;2022-07-21T20:55:54;102183.03;;;19.78
24714;BMP280;12820;51.580;5.010;2022-07-21T21:01:15;102181.53;;;19.73
24714;BMP280;12820;51.580;5.010;2022-07-21T21:06:18;102185.09;;;19.67
24714;BMP280;12820;51.580;5.010;2022-07-21T21:11:20;102184.28;;;19.65
24714;BMP280;12820;51.580;5.010;2022-07-21T21:16:24;102188.69;;;19.60
24714;BMP280;12820;51.580;5.010;2022-07-21T21:21:31;102193.91;;;19.58
24714;BMP280;12820;51.580;5.010;2022-07-21T21:26:33;102194.81;;;19.55
24714;BMP280;12820;51.580;5.010;2022-07-21T21:31:36;102189.81;;;19.52
24714;BMP280;12820;51.580;5.010;2022-07-21T21:36:40;102185.53;;;19.51
24714;BMP280;12820;51.580;5.010;2022-07-21T21:41:42;102186.53;;;19.47
24714;BMP280;12820;51.580;5.010;2022-07-21T21:46:44;102189.09;;;19.46
24714;BMP280;12820;51.580;5.010;2022-07-21T21:51:46;102196.84;;;19.43
24714;BMP280;12820;51.580;5.010;2022-07-21T21:56:48;102196.03;;;19.42
24714;BMP280;12820;51.580;5.010;2022-07-21T22:01:51;102195.22;;;19.40
24714;BMP280;12820;51.580;5.010;2022-07-21T22:06:53;102190.09;;;19.40
24714;BMP280;12820;51.580;5.010;2022-07-21T22:11:55;102186.72;;;19.40
24714;BMP280;12820;51.580;5.010;2022-07-21T22:16:57;102184.16;;;19.40
24714;BMP280;12820;51.580;5.010;2022-07-21T22:21:59;102191.03;;;19.39
24714;BMP280;12820;51.580;5.010;2022-07-21T22:27:01;102184.25;;;19.39
24714;BMP280;12820;51.580;5.010;2022-07-21T22:32:05;102198.69;;;19.38
24714;BMP280;12820;51.580;5.010;2022-07-21T22:37:07;102191.91;;;19.39
24714;BMP280;12820;51.580;5.010;2022-07-21T22:42:10;102191.91;;;19.39
24714;BMP280;12820;51.580;5.010;2022-07-21T22:47:12;102194.38;;;19.40
24714;BMP280;12820;51.580;5.010;2022-07-21T22:52:14;102187.56;;;19.40
24714;BMP280;12820;51.580;5.010;2022-07-21T22:57:17;102193.59;;;19.38
24714;BMP280;12820;51.580;5.010;2022-07-21T23:02:20;102190.22;;;19.38
24714;BMP280;12820;51.580;5.010;2022-07-21T23:07:22;102196.16;;;19.38
24714;BMP280;12820;51.580;5.010;2022-07-21T23:12:24;102194.50;;;19.36
24714;BMP280;12820;51.580;5.010;2022-07-21T23:17:26;102196.22;;;19.35
24714;BMP280;12820;51.580;5.010;2022-07-21T23:22:28;102196.22;;;19.35
24714;BMP280;12820;51.580;5.010;2022-07-21T23:27:30;102192.03;;;19.34
24714;BMP280;12820;51.580;5.010;2022-07-21T23:32:35;102194.56;;;19.34
24714;BMP280;12820;51.580;5.010;2022-07-21T23:37:38;102184.38;;;19.34
24714;BMP280;12820;51.580;5.010;2022-07-21T23:42:40;102187.78;;;19.33
24714;BMP280;12820;51.580;5.010;2022-07-21T23:47:42;102192.88;;;19.35
24714;BMP280;12820;51.580;5.010;2022-07-21T23:52:44;102186.94;;;19.33
24714;BMP280;12820;51.580;5.010;2022-07-21T23:57:46;102189.47;;;19.34
